This is the latest recevied weather packets stored in our database for station/object M0HPP-13. If no packets are shown the sender has not sent any weather packets the latest 10 day(s).
| Time | Temp. | Humidity | Pressure | Rain* | Wind** | Luminosity | Snow |
|---|---|---|---|---|---|---|---|
| 1787480886 | 16.67° C | 74% | 1024.2 hPa | 0 mm | - | 271 W/m² | - |
| 1787480286 | 16.67° C | 74% | 1024.2 hPa | 0 mm | - | 260 W/m² | - |
| 1787479686 | 16.67° C | 76% | 1024.2 hPa | 0 mm | - | 271 W/m² | - |
| 1787479086 | 16.11° C | 77% | 1024.2 hPa | 0 mm | - | 272 W/m² | - |
| 1787478486 | 16.11° C | 78% | 1024.1 hPa | 0 mm | - | 249 W/m² | - |
| 1787477886 | 15.56° C | 79% | 1024.1 hPa | 0 mm | - | 235 W/m² | - |
| 1787477286 | 15.56° C | 79% | 1024.1 hPa | 0 mm | - | 216 W/m² | - |
| 1787476686 | 15.56° C | 78% | 1024.1 hPa | 0 mm | - | 204 W/m² | - |
| 1787476086 | 15° C | 79% | 1024.1 hPa | 0 mm | - | 186 W/m² | - |
| 1787475486 | 15° C | 79% | 1024.1 hPa | 0 mm | - | 179 W/m² | - |
| 1787474886 | 15° C | 78% | 1024.1 hPa | 0 mm | - | 174 W/m² | - |
| 1787474286 | 15° C | 77% | 1024.1 hPa | 0 mm | - | 168 W/m² | - |
| 1787473686 | 15° C | 76% | 1024 hPa | 0 mm | - | 130 W/m² | - |
| 1787473086 | 15° C | 76% | 1024 hPa | 0 mm | - | 123 W/m² | - |
| 1787472486 | 15° C | 77% | 1023.9 hPa | 0 mm | - | 149 W/m² | - |
| 1787471886 | 14.44° C | 80% | 1023.9 hPa | 0 mm | - | 142 W/m² | - |
| 1787471286 | 14.44° C | 80% | 1023.9 hPa | 0 mm | - | 128 W/m² | - |
| 1787470686 | 14.44° C | 79% | 1023.8 hPa | 0 mm | - | 130 W/m² | - |
| 1787470086 | 15° C | 77% | 1023.7 hPa | 0 mm | - | 134 W/m² | - |
| 1787469486 | 15° C | 77% | 1023.8 hPa | 0 mm | - | 189 W/m² | - |
| 1787468886 | 15° C | 79% | 1023.7 hPa | 0 mm | - | 134 W/m² | - |
| 1787468286 | 13.89° C | 82% | 1023.6 hPa | 0 mm | - | 109 W/m² | - |
| 1787467686 | 13.33° C | 85% | 1023.6 hPa | 0 mm | - | 86 W/m² | - |
| 1787467086 | 12.22° C | 90% | 1023.7 hPa | 0 mm | - | 77 W/m² | - |
| 1787466486 | 11.11° C | 92% | 1023.8 hPa | 0 mm | - | 65 W/m² | - |
* Rain latest hour (hover to see other rain measurements)
** Current wind speed in m/s (hover to see current wind gust speed)